This is the latest recevied weather packets stored in our database for station/object EA3FHP. If no packets are shown the sender has not sent any weather packets the latest 10 day(s).
| Time | Temp. | Humidity | Pressure | Rain* | Wind** | Luminosity | Snow |
|---|---|---|---|---|---|---|---|
| 1777300803 | 18.89° C | 71% | 1019 hPa | 0 mm | - | - | - |
| 1777300203 | 23.89° C | 62% | 1018.8 hPa | 0 mm | - | - | - |
| 1777299603 | 25.56° C | 57% | 1018.3 hPa | 0 mm | - | - | - |
| 1777299004 | 25° C | 53% | 1018.2 hPa | 0 mm | - | - | - |
| 1777298404 | 25° C | 57% | 1017.9 hPa | 0 mm | - | - | - |
| 1777297804 | 25° C | 59% | 1018.2 hPa | 0 mm | - | - | - |
| 1777234203 | 15° C | 94% | 1021.2 hPa | 0 mm | - | - | - |
| 1777233604 | 15° C | 94% | 1020.9 hPa | 0 mm | - | - | - |
| 1777233003 | 15° C | 94% | 1020.9 hPa | 0 mm | - | - | - |
| 1777232403 | 15.56° C | 94% | 1020.8 hPa | 0 mm | - | - | - |
| 1777231803 | 15.56° C | 94% | 1020.7 hPa | 0 mm | - | - | - |
| 1777231203 | 15.56° C | 93% | 1020.5 hPa | 0 mm | - | - | - |
| 1777230603 | 15.56° C | 93% | 1020.5 hPa | 0 mm | - | - | - |
| 1777230004 | 15.56° C | 93% | 1020.6 hPa | 0 mm | - | - | - |
| 1777229403 | 15.56° C | 93% | 1020.4 hPa | 0 mm | - | - | - |
| 1777228803 | 15.56° C | 92% | 1020.4 hPa | 0 mm | - | - | - |
| 1777228203 | 15.56° C | 91% | 1020.5 hPa | 0 mm | - | - | - |
| 1777227603 | 15.56° C | 91% | 1020.2 hPa | 0 mm | - | - | - |
| 1777227003 | 15.56° C | 91% | 1020.2 hPa | 0 mm | - | - | - |
| 1777226403 | 15.56° C | 91% | 1020.5 hPa | 0 mm | - | - | - |
| 1777225803 | 15.56° C | 90% | 1020.2 hPa | 0.25 mm | - | - | - |
| 1777225204 | 15.56° C | 89% | 1020.3 hPa | 0.51 mm | - | - | - |
| 1777224603 | 15.56° C | 89% | 1020.2 hPa | 0.51 mm | - | - | - |
| 1777224003 | 15.56° C | 88% | 1020.4 hPa | 0.51 mm | - | - | - |
| 1777223403 | 15.56° C | 88% | 1020.3 hPa | 1.02 mm | - | - | - |
* Rain latest hour (hover to see other rain measurements)
** Current wind speed in m/s (hover to see current wind gust speed)